KINL/INL METAR and TAF weather

Enter ICAO airport designator
Station Type Date Time Source
KINL METAR 2018/12/13 20:55 UTC NOAA

KINL 132055Z AUTO 24005KT 9SM CLR 01/M01 A2990 RMK AO2 SLP141 T00111011 53007


Station Type Date Time Source
KINL Decoded METAR 2018/12/13 20:55 UTC NOAA

FALLS INTERNATIONAL AIRPORT , MN, United States (KINL) 48-34N 093-24W 360M
Dec 13, 2018 - 03:55 PM EST / 2018.12.13 2055 UTC
Wind: from the WSW (240 degrees) at 6 MPH (5 KT):0
Visibility: 9 mile(s):0
Sky conditions: clear
Temperature: 34.0 F (1.1 C)
Windchill: 28 F (-2 C):1
Dew Point: 30.0 F (-1.1 C)
Relative Humidity: 85%
Pressure (altimeter): 29.9 in. Hg (1012 hPa)
Pressure tendency: 0.02 inches (0.7 hPa) higher than three hours ago
ob: KINL 132055Z AUTO 24005KT 9SM CLR 01/M01 A2990 RMK AO2 SLP141 T00111011 53007
cycle: 21

Station Type Date Time Source
KINL TAF 2018/12/13 18:42 UTC NOAA

TAF KINL 131739Z 1318/1418 24007KT 3SM BR OVC010
FM132100 25007KT P6SM SCT025
FM140300 22006KT P6SM FEW250
FM140700 23007KT P6SM FEW250 WS020/26040KT
FM141600 25008KT P6SM FEW250


Example: see airport list